GDAXI EGHR-EGHR
Flight info
| Callsign | GDAXI |
|---|---|
| Flight time | N/A |
| Altitude | 2000 |
| Route | VFR |
| Aircraft | BE35/L-SDE3/L |
Departure
| Time | 2026-04-26 19:15 |
|---|---|
| Airport | Goodwood Aerodrome (EGHR) |
Arrival
| Time | N/A |
|---|---|
| Airport | Goodwood Aerodrome (EGHR) |
| Time | Latitude | Longitude | Altitude | Speed | Heading |
|---|---|---|---|---|---|
| 2026-04-26 19:03 | 50.85764 | -0.75503 | 102 ft | 0 kts | 104° |
| 2026-04-26 19:13 | 50.85761 | -0.75484 | 104 ft | 7 kts | 120° |
| 2026-04-26 19:13 | 50.85748 | -0.75471 | 103 ft | 6 kts | 164° |
| 2026-04-26 19:13 | 50.85669 | -0.75425 | 104 ft | 17 kts | 150° |
| 2026-04-26 19:14 | 50.85590 | -0.75371 | 103 ft | 8 kts | 153° |
| 2026-04-26 19:14 | 50.85536 | -0.75359 | 102 ft | 6 kts | 206° |
| 2026-04-26 19:14 | 50.85524 | -0.75382 | 102 ft | 0 kts | 263° |
| 2026-04-26 19:15 | 50.85684 | -0.75609 | 102 ft | 63 kts | 323° |
| 2026-04-26 19:15 | 50.85996 | -0.75985 | 216 ft | 95 kts | 325° |
| 2026-04-26 19:15 | 50.86701 | -0.76399 | 613 ft | 121 kts | 2° |
| 2026-04-26 19:15 | 50.87675 | -0.76269 | 717 ft | 150 kts | 7° |
| 2026-04-26 19:16 | 50.88629 | -0.76084 | 813 ft | 116 kts | 12° |
| 2026-04-26 19:16 | 50.89341 | -0.75896 | 791 ft | 105 kts | 18° |
| 2026-04-26 19:16 | 50.89659 | -0.75223 | 903 ft | 84 kts | 135° |
| 2026-04-26 19:16 | 50.89246 | -0.74871 | 890 ft | 79 kts | 116° |
| 2026-04-26 19:17 | 50.89054 | -0.74166 | 1005 ft | 73 kts | 130° |
| 2026-04-26 19:17 | 50.88774 | -0.73675 | 956 ft | 86 kts | 136° |
| 2026-04-26 19:17 | 50.88151 | -0.72857 | 904 ft | 101 kts | 147° |
| 2026-04-26 19:17 | 50.87548 | -0.72250 | 845 ft | 106 kts | 150° |
| 2026-04-26 19:18 | 50.86876 | -0.71644 | 685 ft | 116 kts | 150° |
| 2026-04-26 19:18 | 50.86159 | -0.71041 | 690 ft | 111 kts | 152° |
| 2026-04-26 19:18 | 50.85461 | -0.70450 | 550 ft | 121 kts | 152° |
| 2026-04-26 19:18 | 50.84693 | -0.69764 | 601 ft | 104 kts | 149° |
| 2026-04-26 19:19 | 50.84056 | -0.69256 | 572 ft | 112 kts | 157° |
| 2026-04-26 19:19 | 50.83324 | -0.68870 | 549 ft | 113 kts | 163° |
| 2026-04-26 19:19 | 50.82549 | -0.68562 | 489 ft | 118 kts | 164° |
| 2026-04-26 19:19 | 50.81757 | -0.68283 | 627 ft | 107 kts | 174° |
| 2026-04-26 19:20 | 50.80902 | -0.68218 | 739 ft | 143 kts | 179° |
| 2026-04-26 19:20 | 50.80179 | -0.68240 | 876 ft | 157 kts | 181° |
| 2026-04-26 19:20 | 50.78604 | -0.68523 | 823 ft | 179 kts | 189° |
| 2026-04-26 19:20 | 50.77378 | -0.69130 | 1057 ft | 178 kts | 213° |
| 2026-04-26 19:21 | 50.76570 | -0.70346 | 1581 ft | 161 kts | 226° |
| 2026-04-26 19:21 | 50.75836 | -0.71698 | 1945 ft | 167 kts | 228° |
| 2026-04-26 19:21 | 50.75090 | -0.73146 | 2189 ft | 174 kts | 231° |
| 2026-04-26 19:21 | 50.74335 | -0.74731 | 2360 ft | 179 kts | 232° |
| 2026-04-26 19:22 | 50.73605 | -0.76316 | 2498 ft | 182 kts | 234° |
| 2026-04-26 19:22 | 50.72868 | -0.78041 | 2223 ft | 203 kts | 235° |
| 2026-04-26 19:22 | 50.72204 | -0.80026 | 1932 ft | 208 kts | 253° |
| 2026-04-26 19:22 | 50.72121 | -0.82161 | 1850 ft | 205 kts | 275° |
| 2026-04-26 19:23 | 50.72318 | -0.84273 | 1801 ft | 201 kts | 283° |
| 2026-04-26 19:23 | 50.72711 | -0.86458 | 1739 ft | 201 kts | 290° |
| 2026-04-26 19:23 | 50.73212 | -0.88517 | 1666 ft | 200 kts | 298° |
| 2026-04-26 19:23 | 50.73985 | -0.90153 | 1632 ft | 198 kts | 315° |
| 2026-04-26 19:24 | 50.75590 | -0.92661 | 1695 ft | 196 kts | 313° |
| 2026-04-26 19:24 | 50.76726 | -0.95682 | 1082 ft | 212 kts | 297° |
| 2026-04-26 19:25 | 50.77388 | -0.98039 | 1444 ft | 190 kts | 293° |
| 2026-04-26 19:25 | 50.77802 | -0.99606 | 1583 ft | 188 kts | 295° |
| 2026-04-26 19:25 | 50.78833 | -1.02341 | 1943 ft | 185 kts | 311° |
| 2026-04-26 19:25 | 50.79312 | -1.03275 | 1910 ft | 192 kts | 310° |
| 2026-04-26 19:26 | 50.80550 | -1.06004 | 1675 ft | 202 kts | 313° |
| 2026-04-26 19:26 | 50.81484 | -1.07801 | 1890 ft | 185 kts | 306° |
| 2026-04-26 19:26 | 50.81837 | -1.09182 | 2427 ft | 153 kts | 281° |
| 2026-04-26 19:26 | 50.81868 | -1.09860 | 2482 ft | 155 kts | 268° |
| 2026-04-26 19:27 | 50.81645 | -1.11434 | 2555 ft | 158 kts | 252° |
| 2026-04-26 19:27 | 50.81878 | -1.13228 | 2594 ft | 157 kts | 315° |
| 2026-04-26 19:27 | 50.83041 | -1.13643 | 2194 ft | 168 kts | 22° |
| 2026-04-26 19:27 | 50.83785 | -1.12871 | 2281 ft | 154 kts | 43° |
| 2026-04-26 19:28 | 50.84657 | -1.11423 | 1972 ft | 167 kts | 53° |
| 2026-04-26 19:28 | 50.85210 | -1.10265 | 1794 ft | 170 kts | 59° |
| 2026-04-26 19:28 | 50.86043 | -1.07394 | 1747 ft | 158 kts | 72° |
| 2026-04-26 19:29 | 50.86065 | -1.05308 | 1717 ft | 158 kts | 101° |
| 2026-04-26 19:29 | 50.85922 | -1.04336 | 1600 ft | 163 kts | 104° |
| 2026-04-26 19:29 | 50.85600 | -1.02519 | 1216 ft | 175 kts | 103° |
| 2026-04-26 19:29 | 50.86156 | -1.01407 | 1200 ft | 170 kts | 4° |
| 2026-04-26 19:30 | 50.87799 | -1.01623 | 761 ft | 173 kts | 16° |
| 2026-04-26 19:30 | 50.88148 | -1.01428 | 856 ft | 170 kts | 22° |
| 2026-04-26 19:30 | 50.90093 | -0.99900 | 845 ft | 184 kts | 23° |
| 2026-04-26 19:31 | 50.92366 | -0.99691 | 916 ft | 190 kts | 359° |
| 2026-04-26 19:31 | 50.93277 | -0.99606 | 1146 ft | 170 kts | 23° |
| 2026-04-26 19:31 | 50.94501 | -0.99177 | 1429 ft | 160 kts | 336° |
| 2026-04-26 19:31 | 50.94902 | -1.00258 | 1502 ft | 158 kts | 273° |
| 2026-04-26 19:32 | 50.94726 | -1.01173 | 1778 ft | 142 kts | 223° |
| 2026-04-26 19:32 | 50.93336 | -1.01944 | 1812 ft | 154 kts | 191° |
| 2026-04-26 19:32 | 50.92515 | -1.02201 | 1667 ft | 167 kts | 187° |
| 2026-04-26 19:32 | 50.91554 | -1.02440 | 1507 ft | 173 kts | 188° |
| 2026-04-26 19:33 | 50.90716 | -1.02666 | 1345 ft | 178 kts | 189° |
| 2026-04-26 19:33 | 50.88864 | -1.03445 | 1417 ft | 166 kts | 199° |
| 2026-04-26 19:33 | 50.88159 | -1.03950 | 1544 ft | 159 kts | 206° |
| 2026-04-26 19:33 | 50.87234 | -1.05562 | 1583 ft | 166 kts | 244° |
| 2026-04-26 19:34 | 50.86923 | -1.06741 | 1525 ft | 171 kts | 248° |
| 2026-04-26 19:34 | 50.86512 | -1.08494 | 1418 ft | 178 kts | 248° |
| 2026-04-26 19:34 | 50.86074 | -1.10384 | 1311 ft | 180 kts | 248° |
| 2026-04-26 19:34 | 50.85562 | -1.12240 | 1261 ft | 179 kts | 240° |
| 2026-04-26 19:35 | 50.84841 | -1.14034 | 1085 ft | 179 kts | 232° |
| 2026-04-26 19:35 | 50.84139 | -1.15410 | 1067 ft | 173 kts | 228° |
| 2026-04-26 19:35 | 50.83373 | -1.16837 | 933 ft | 175 kts | 227° |
| 2026-04-26 19:35 | 50.82430 | -1.18140 | 1019 ft | 159 kts | 205° |
| 2026-04-26 19:36 | 50.81535 | -1.18802 | 1093 ft | 157 kts | 204° |
| 2026-04-26 19:36 | 50.80828 | -1.19432 | 938 ft | 168 kts | 208° |
| 2026-04-26 19:36 | 50.79510 | -1.20399 | 970 ft | 139 kts | 195° |
| 2026-04-26 19:36 | 50.78928 | -1.21137 | 1036 ft | 93 kts | 272° |
| 2026-04-26 19:37 | 50.79365 | -1.21889 | 700 ft | 98 kts | 318° |
| 2026-04-26 19:37 | 50.79905 | -1.22344 | 422 ft | 75 kts | 356° |
| 2026-04-26 19:37 | 50.80304 | -1.22303 | 195 ft | 68 kts | 15° |
| 2026-04-26 19:37 | 50.80749 | -1.21908 | 141 ft | 76 kts | 41° |
| 2026-04-26 19:38 | 50.81115 | -1.21381 | 40 ft | 72 kts | 43° |
| 2026-04-26 19:38 | 50.81465 | -1.20842 | 26 ft | 66 kts | 49° |
| 2026-04-26 19:38 | 50.81695 | -1.20467 | 30 ft | 40 kts | 45° |
| 2026-04-26 19:38 | 50.82037 | -1.19938 | 174 ft | 79 kts | 49° |
| 2026-04-26 19:39 | 50.82205 | -1.19130 | 431 ft | 87 kts | 97° |
| 2026-04-26 19:39 | 50.81816 | -1.18484 | 616 ft | 85 kts | 182° |
| 2026-04-26 19:39 | 50.81258 | -1.18955 | 680 ft | 88 kts | 226° |
| 2026-04-26 19:39 | 50.81006 | -1.19446 | 695 ft | 96 kts | 222° |
| 2026-04-26 19:40 | 50.80402 | -1.20326 | 646 ft | 106 kts | 223° |
| 2026-04-26 19:40 | 50.79714 | -1.21630 | 785 ft | 98 kts | 233° |
| 2026-04-26 19:40 | 50.79651 | -1.22648 | 776 ft | 98 kts | 308° |
| 2026-04-26 19:41 | 50.80271 | -1.22678 | 204 ft | 87 kts | 36° |
| 2026-04-26 19:41 | 50.80679 | -1.22100 | 60 ft | 74 kts | 46° |
| 2026-04-26 19:41 | 50.81025 | -1.21547 | 42 ft | 86 kts | 45° |
| 2026-04-26 19:41 | 50.81311 | -1.21103 | 36 ft | 91 kts | 45° |
| 2026-04-26 19:42 | 50.81767 | -1.20379 | 31 ft | 31 kts | 47° |